Pays
Station

 

Conditions  météo  pour  Skagway  -  Etats-Unis    Etats-Unis

  
22 °C
    
 
 

METAR pour Skagway :

PAGY 200153Z AUTO 23009KT 10SM CLR 22/11 A2998 RMK AO2 SLP153 T02220106 TSNO

 

Voici le bulletin pour Skagway - Etats-Unis.
 
Le bulletin a été fait il y a 6 minutes, à 01:53 UTC .
Le vent soufflait à la vitesse de 4.6 mètres par seconde de Sud-ouest (230°).
 
La température était de 22 °C, avec un point de rosée à 11 °C.
La température ressentie était de 25 °C.
 
La pression atmosphérique était de 1015 hPa.
L'humidité relative était de 49.7%.
 
Le ciel était clair.
 
La visibilité globale était de 16.1 kilomètres.
 

 
 
 

Pays :   A   B   C   D   E   F   G   H   I   J   K   L   M   N   O   P   Q   R   S   T   U   V   W   Y   Z

 

Partenaires :  Info Météo avec Met'info
Météo Marine avec MeteoMarine.net
Infos Site  |  Infos Légales  |  Crédits  |  Confidentialité
Contactez-nous  |  Ajouter aux favoris
© 2013-2018 METAR - Tous droits réservés